ABY419 OOMS-OMDB
Flight info
| Callsign | ABY419 |
|---|---|
| Flight time | N/A |
| Altitude | 20000 |
| Route | MCT T508 SOLUD P574 IMPED |
| Aircraft | A21N/M-SDE2E3FGHIRWXY/LB1 |
Departure
| Time | 2026-05-01 12:10 |
|---|---|
| Airport | Muscat International Airport (OOMS) |
Arrival
| Time | N/A |
|---|---|
| Airport | Dubai International Airport (OMDB) |
| Time | Latitude | Longitude | Altitude | Speed | Heading |
|---|---|---|---|---|---|
| 2026-05-01 11:33 | 23.59943 | 58.28072 | 41 ft | 0 kts | 355° |
| 2026-05-01 11:56 | 23.59939 | 58.28072 | 41 ft | 2 kts | 355° |
| 2026-05-01 11:57 | 23.59924 | 58.28073 | 41 ft | 2 kts | 355° |
| 2026-05-01 11:57 | 23.59914 | 58.28074 | 41 ft | 2 kts | 355° |
| 2026-05-01 11:57 | 23.59896 | 58.28076 | 41 ft | 2 kts | 355° |
| 2026-05-01 11:57 | 23.59880 | 58.28077 | 41 ft | 2 kts | 355° |
| 2026-05-01 11:58 | 23.59869 | 58.28079 | 41 ft | 1 kts | 355° |
| 2026-05-01 11:58 | 23.59856 | 58.28083 | 41 ft | 2 kts | 316° |
| 2026-05-01 11:58 | 23.59847 | 58.28105 | 41 ft | 1 kts | 259° |
| 2026-05-01 11:59 | 23.59848 | 58.28111 | 41 ft | 0 kts | 264° |
| 2026-05-01 12:01 | 23.59848 | 58.28110 | 41 ft | 0 kts | 264° |
| 2026-05-01 12:01 | 23.59846 | 58.28089 | 41 ft | 5 kts | 265° |
| 2026-05-01 12:01 | 23.59842 | 58.28032 | 41 ft | 10 kts | 265° |
| 2026-05-01 12:02 | 23.59833 | 58.27945 | 41 ft | 11 kts | 242° |
| 2026-05-01 12:02 | 23.59766 | 58.27880 | 41 ft | 15 kts | 220° |
| 2026-05-01 12:02 | 23.59675 | 58.27798 | 41 ft | 19 kts | 220° |
| 2026-05-01 12:02 | 23.59569 | 58.27701 | 41 ft | 22 kts | 220° |
| 2026-05-01 12:03 | 23.59535 | 58.27591 | 41 ft | 16 kts | 267° |
| 2026-05-01 12:03 | 23.59529 | 58.27459 | 41 ft | 17 kts | 264° |
| 2026-05-01 12:03 | 23.59601 | 58.27374 | 41 ft | 19 kts | 355° |
| 2026-05-01 12:03 | 23.59744 | 58.27361 | 41 ft | 22 kts | 355° |
| 2026-05-01 12:04 | 23.59886 | 58.27347 | 41 ft | 24 kts | 354° |
| 2026-05-01 12:04 | 23.60038 | 58.27331 | 41 ft | 25 kts | 355° |
| 2026-05-01 12:04 | 23.60153 | 58.27320 | 41 ft | 4 kts | 355° |
| 2026-05-01 12:05 | 23.60202 | 58.27316 | 41 ft | 9 kts | 355° |
| 2026-05-01 12:05 | 23.60390 | 58.27300 | 41 ft | 17 kts | 355° |
| 2026-05-01 12:05 | 23.60454 | 58.27383 | 41 ft | 16 kts | 83° |
| 2026-05-01 12:06 | 23.60468 | 58.27517 | 41 ft | 19 kts | 83° |
| 2026-05-01 12:06 | 23.60484 | 58.27680 | 41 ft | 22 kts | 85° |
| 2026-05-01 12:06 | 23.60497 | 58.27861 | 41 ft | 25 kts | 84° |
| 2026-05-01 12:06 | 23.60513 | 58.28060 | 41 ft | 27 kts | 86° |
| 2026-05-01 12:07 | 23.60529 | 58.28275 | 41 ft | 29 kts | 84° |
| 2026-05-01 12:07 | 23.60548 | 58.28492 | 41 ft | 28 kts | 84° |
| 2026-05-01 12:07 | 23.60566 | 58.28711 | 40 ft | 29 kts | 87° |
| 2026-05-01 12:07 | 23.60583 | 58.28941 | 40 ft | 31 kts | 85° |
| 2026-05-01 12:08 | 23.60603 | 58.29178 | 41 ft | 28 kts | 85° |
| 2026-05-01 12:08 | 23.60616 | 58.29386 | 40 ft | 26 kts | 85° |
| 2026-05-01 12:08 | 23.60633 | 58.29562 | 40 ft | 20 kts | 78° |
| 2026-05-01 12:08 | 23.60745 | 58.29608 | 40 ft | 18 kts | 355° |
| 2026-05-01 12:09 | 23.60868 | 58.29581 | 40 ft | 17 kts | 323° |
| 2026-05-01 12:09 | 23.60892 | 58.29536 | 40 ft | 0 kts | 267° |
| 2026-05-01 12:09 | 23.60889 | 58.29460 | 40 ft | 40 kts | 265° |
| 2026-05-01 12:09 | 23.60845 | 58.28914 | 41 ft | 111 kts | 264° |
| 2026-05-01 12:10 | 23.60558 | 58.25462 | 889 ft | 184 kts | 268° |
| 2026-05-01 12:10 | 23.60448 | 58.24166 | 1622 ft | 176 kts | 270° |
| 2026-05-01 12:11 | 23.60242 | 58.21464 | 2536 ft | 198 kts | 270° |
| 2026-05-01 12:11 | 23.60127 | 58.19936 | 2903 ft | 216 kts | 270° |
| 2026-05-01 12:11 | 23.59996 | 58.18231 | 3106 ft | 242 kts | 269° |
| 2026-05-01 12:12 | 23.59844 | 58.16318 | 3439 ft | 262 kts | 268° |
| 2026-05-01 12:12 | 23.59676 | 58.14286 | 3999 ft | 272 kts | 268° |
| 2026-05-01 12:12 | 23.59506 | 58.12254 | 4756 ft | 275 kts | 267° |
| 2026-05-01 12:12 | 23.59338 | 58.10223 | 5609 ft | 275 kts | 267° |
| 2026-05-01 12:13 | 23.59166 | 58.08133 | 6448 ft | 277 kts | 266° |
| 2026-05-01 12:13 | 23.59006 | 58.06065 | 7285 ft | 279 kts | 268° |
| 2026-05-01 12:13 | 23.59299 | 58.04000 | 8114 ft | 280 kts | 292° |
| 2026-05-01 12:13 | 23.60404 | 58.02267 | 8958 ft | 284 kts | 312° |
| 2026-05-01 12:14 | 23.61784 | 58.00766 | 9735 ft | 288 kts | 312° |
| 2026-05-01 12:14 | 23.63205 | 57.99220 | 10473 ft | 292 kts | 312° |
| 2026-05-01 12:14 | 23.64680 | 57.97595 | 10926 ft | 308 kts | 311° |
| 2026-05-01 12:14 | 23.66215 | 57.95892 | 11317 ft | 324 kts | 311° |
| 2026-05-01 12:15 | 23.67820 | 57.94100 | 11783 ft | 334 kts | 311° |
| 2026-05-01 12:15 | 23.69420 | 57.92236 | 12465 ft | 335 kts | 308° |
| 2026-05-01 12:15 | 23.70912 | 57.90280 | 13088 ft | 337 kts | 305° |
| 2026-05-01 12:15 | 23.72355 | 57.88291 | 13659 ft | 340 kts | 304° |
| 2026-05-01 12:16 | 23.73841 | 57.86231 | 14265 ft | 342 kts | 304° |
| 2026-05-01 12:16 | 23.75311 | 57.84187 | 14823 ft | 344 kts | 304° |
| 2026-05-01 12:16 | 23.76788 | 57.82138 | 15359 ft | 346 kts | 304° |
| 2026-05-01 12:16 | 23.78271 | 57.80079 | 15845 ft | 349 kts | 304° |
| 2026-05-01 12:17 | 23.79766 | 57.78003 | 16329 ft | 352 kts | 304° |
| 2026-05-01 12:17 | 23.81288 | 57.75893 | 16808 ft | 354 kts | 304° |
| 2026-05-01 12:17 | 23.82761 | 57.73846 | 17238 ft | 357 kts | 304° |
| 2026-05-01 12:17 | 23.84275 | 57.71743 | 17730 ft | 359 kts | 304° |
| 2026-05-01 12:18 | 23.85770 | 57.69667 | 18128 ft | 357 kts | 304° |
| 2026-05-01 12:18 | 23.87315 | 57.67519 | 18354 ft | 360 kts | 304° |
| 2026-05-01 12:18 | 23.88853 | 57.65380 | 18603 ft | 362 kts | 304° |
| 2026-05-01 12:18 | 23.90398 | 57.63227 | 18838 ft | 362 kts | 304° |
| 2026-05-01 12:19 | 23.91960 | 57.61052 | 19075 ft | 363 kts | 304° |
| 2026-05-01 12:19 | 23.93499 | 57.58908 | 19299 ft | 364 kts | 304° |
| 2026-05-01 12:19 | 23.95040 | 57.56759 | 19491 ft | 366 kts | 304° |
| 2026-05-01 12:19 | 23.96582 | 57.54607 | 19695 ft | 361 kts | 303° |
| 2026-05-01 12:20 | 23.98041 | 57.52584 | 19756 ft | 335 kts | 303° |
| 2026-05-01 12:20 | 23.99416 | 57.50678 | 19757 ft | 311 kts | 303° |
| 2026-05-01 12:20 | 24.00698 | 57.48898 | 19723 ft | 287 kts | 303° |
| 2026-05-01 12:20 | 24.01885 | 57.47247 | 19721 ft | 274 kts | 302° |
| 2026-05-01 12:21 | 24.03068 | 57.45588 | 19750 ft | 287 kts | 302° |
| 2026-05-01 12:21 | 24.04346 | 57.43778 | 19750 ft | 317 kts | 303° |
| 2026-05-01 12:21 | 24.05744 | 57.41802 | 19762 ft | 345 kts | 303° |
| 2026-05-01 12:21 | 24.07286 | 57.39637 | 19768 ft | 372 kts | 303° |
| 2026-05-01 12:22 | 24.08916 | 57.37355 | 19762 ft | 397 kts | 304° |
| 2026-05-01 12:22 | 24.10660 | 57.34917 | 19754 ft | 420 kts | 303° |
| 2026-05-01 12:22 | 24.12482 | 57.32371 | 19745 ft | 441 kts | 304° |
| 2026-05-01 12:22 | 24.14406 | 57.29680 | 19744 ft | 460 kts | 304° |
| 2026-05-01 12:23 | 24.16363 | 57.26944 | 19973 ft | 456 kts | 304° |
| 2026-05-01 12:23 | 24.18241 | 57.24336 | 19852 ft | 434 kts | 304° |
| 2026-05-01 12:23 | 24.20037 | 57.21828 | 19790 ft | 430 kts | 304° |
| 2026-05-01 12:23 | 24.21877 | 57.19246 | 19772 ft | 430 kts | 303° |
| 2026-05-01 12:24 | 24.23683 | 57.16707 | 19755 ft | 430 kts | 304° |
| 2026-05-01 12:24 | 24.25512 | 57.14135 | 19741 ft | 430 kts | 304° |
| 2026-05-01 12:24 | 24.27352 | 57.11546 | 19743 ft | 430 kts | 304° |
| 2026-05-01 12:24 | 24.29163 | 57.08998 | 19746 ft | 430 kts | 303° |
| 2026-05-01 12:25 | 24.30999 | 57.06412 | 19750 ft | 430 kts | 304° |
| 2026-05-01 12:25 | 24.34626 | 57.01302 | 19741 ft | 430 kts | 304° |
| 2026-05-01 12:25 | 24.36451 | 56.98729 | 19747 ft | 430 kts | 304° |
| 2026-05-01 12:26 | 24.38272 | 56.96160 | 19753 ft | 430 kts | 304° |
| 2026-05-01 12:26 | 24.41908 | 56.91025 | 19755 ft | 429 kts | 303° |
| 2026-05-01 12:26 | 24.43751 | 56.88421 | 19762 ft | 430 kts | 304° |
| 2026-05-01 12:27 | 24.45558 | 56.85863 | 19772 ft | 429 kts | 304° |
| 2026-05-01 12:27 | 24.49092 | 56.80859 | 19778 ft | 429 kts | 303° |
| 2026-05-01 12:28 | 24.52707 | 56.75735 | 19767 ft | 428 kts | 303° |
| 2026-05-01 12:28 | 24.54543 | 56.73135 | 19765 ft | 429 kts | 304° |
| 2026-05-01 12:28 | 24.58185 | 56.67992 | 19774 ft | 429 kts | 304° |
| 2026-05-01 12:29 | 24.60013 | 56.65409 | 19778 ft | 430 kts | 304° |
| 2026-05-01 12:29 | 24.61828 | 56.62839 | 19769 ft | 430 kts | 304° |
| 2026-05-01 12:29 | 24.65449 | 56.57704 | 19763 ft | 430 kts | 304° |
| 2026-05-01 12:30 | 24.69125 | 56.52490 | 19790 ft | 430 kts | 304° |
| 2026-05-01 12:30 | 24.70937 | 56.49920 | 19793 ft | 430 kts | 304° |
| 2026-05-01 12:30 | 24.72762 | 56.47326 | 19771 ft | 430 kts | 304° |
| 2026-05-01 12:31 | 24.74598 | 56.44714 | 19794 ft | 427 kts | 304° |
| 2026-05-01 12:31 | 24.76379 | 56.42183 | 19406 ft | 412 kts | 304° |
| 2026-05-01 12:31 | 24.78104 | 56.39727 | 18142 ft | 408 kts | 304° |
| 2026-05-01 12:31 | 24.79814 | 56.37280 | 16629 ft | 408 kts | 304° |
| 2026-05-01 12:32 | 24.81482 | 56.34829 | 15337 ft | 401 kts | 303° |
| 2026-05-01 12:32 | 24.82987 | 56.32586 | 14251 ft | 392 kts | 303° |
| 2026-05-01 12:32 | 24.84477 | 56.30370 | 13168 ft | 385 kts | 304° |
| 2026-05-01 12:33 | 24.86047 | 56.28033 | 12170 ft | 383 kts | 304° |
| 2026-05-01 12:33 | 24.87565 | 56.25682 | 11582 ft | 376 kts | 301° |
| 2026-05-01 12:33 | 24.88909 | 56.23290 | 10989 ft | 371 kts | 298° |
| 2026-05-01 12:33 | 24.90184 | 56.20833 | 10413 ft | 366 kts | 297° |
| 2026-05-01 12:34 | 24.91402 | 56.18458 | 10116 ft | 354 kts | 297° |
| 2026-05-01 12:34 | 24.92586 | 56.16148 | 10075 ft | 335 kts | 297° |
| 2026-05-01 12:34 | 24.93698 | 56.13981 | 10063 ft | 317 kts | 297° |
| 2026-05-01 12:34 | 24.94752 | 56.11927 | 10062 ft | 298 kts | 297° |
| 2026-05-01 12:35 | 24.95741 | 56.10001 | 10067 ft | 281 kts | 297° |
| 2026-05-01 12:35 | 24.96683 | 56.08179 | 10067 ft | 264 kts | 299° |
| 2026-05-01 12:35 | 24.97676 | 56.06565 | 10016 ft | 252 kts | 304° |
| 2026-05-01 12:35 | 24.98758 | 56.05070 | 9718 ft | 248 kts | 301° |
| 2026-05-01 12:36 | 24.99441 | 56.03334 | 9338 ft | 245 kts | 284° |
| 2026-05-01 12:36 | 24.99855 | 56.01550 | 8985 ft | 244 kts | 283° |
| 2026-05-01 12:36 | 25.00272 | 55.99742 | 8650 ft | 243 kts | 284° |
| 2026-05-01 12:36 | 25.00712 | 55.97955 | 8296 ft | 242 kts | 285° |
| 2026-05-01 12:37 | 25.01173 | 55.96172 | 7925 ft | 243 kts | 286° |
| 2026-05-01 12:37 | 25.01643 | 55.94410 | 7580 ft | 242 kts | 286° |
| 2026-05-01 12:37 | 25.02127 | 55.92629 | 7224 ft | 242 kts | 287° |
| 2026-05-01 12:37 | 25.02618 | 55.90848 | 6866 ft | 243 kts | 287° |
| 2026-05-01 12:38 | 25.03105 | 55.89089 | 6529 ft | 242 kts | 288° |
| 2026-05-01 12:38 | 25.03600 | 55.87313 | 6186 ft | 241 kts | 288° |
| 2026-05-01 12:38 | 25.04096 | 55.85538 | 5827 ft | 242 kts | 288° |
| 2026-05-01 12:38 | 25.04590 | 55.83772 | 5492 ft | 241 kts | 288° |
| 2026-05-01 12:39 | 25.05081 | 55.82015 | 5149 ft | 241 kts | 288° |
| 2026-05-01 12:39 | 25.05572 | 55.80257 | 4798 ft | 240 kts | 288° |
| 2026-05-01 12:39 | 25.06060 | 55.78507 | 4464 ft | 240 kts | 288° |
| 2026-05-01 12:39 | 25.06551 | 55.76746 | 4143 ft | 239 kts | 288° |
| 2026-05-01 12:40 | 25.07036 | 55.75007 | 3830 ft | 237 kts | 288° |
| 2026-05-01 12:40 | 25.07521 | 55.73270 | 3541 ft | 236 kts | 288° |
| 2026-05-01 12:40 | 25.07998 | 55.71558 | 3222 ft | 235 kts | 289° |
| 2026-05-01 12:40 | 25.08474 | 55.69844 | 3021 ft | 233 kts | 288° |
| 2026-05-01 12:41 | 25.08897 | 55.68115 | 3015 ft | 236 kts | 284° |
| 2026-05-01 12:41 | 25.09240 | 55.66373 | 3000 ft | 231 kts | 285° |
| 2026-05-01 12:41 | 25.09708 | 55.64746 | 2976 ft | 215 kts | 295° |
| 2026-05-01 12:41 | 25.10356 | 55.63323 | 2968 ft | 197 kts | 301° |
| 2026-05-01 12:42 | 25.11041 | 55.62093 | 2972 ft | 187 kts | 303° |
| 2026-05-01 12:42 | 25.11741 | 55.60875 | 3003 ft | 191 kts | 303° |
| 2026-05-01 12:42 | 25.12446 | 55.59638 | 3006 ft | 192 kts | 303° |
| 2026-05-01 12:42 | 25.13159 | 55.58366 | 3009 ft | 192 kts | 302° |
| 2026-05-01 12:43 | 25.13837 | 55.57144 | 3010 ft | 192 kts | 302° |
| 2026-05-01 12:43 | 25.14517 | 55.55912 | 3007 ft | 192 kts | 302° |
| 2026-05-01 12:43 | 25.15208 | 55.54657 | 2920 ft | 193 kts | 302° |
| 2026-05-01 12:43 | 25.15890 | 55.53418 | 2703 ft | 192 kts | 302° |
| 2026-05-01 12:44 | 25.16532 | 55.52251 | 2483 ft | 191 kts | 302° |
| 2026-05-01 12:44 | 25.17214 | 55.51015 | 2256 ft | 196 kts | 302° |
| 2026-05-01 12:44 | 25.18597 | 55.48512 | 1872 ft | 194 kts | 302° |
| 2026-05-01 12:45 | 25.19886 | 55.46181 | 1353 ft | 176 kts | 302° |
| 2026-05-01 12:45 | 25.20476 | 55.45114 | 1128 ft | 163 kts | 301° |
| 2026-05-01 12:45 | 25.20986 | 55.44194 | 979 ft | 147 kts | 301° |
| 2026-05-01 12:46 | 25.21473 | 55.43315 | 790 ft | 134 kts | 302° |
| 2026-05-01 12:46 | 25.21965 | 55.42445 | 652 ft | 134 kts | 302° |
| 2026-05-01 12:46 | 25.22405 | 55.41652 | 535 ft | 135 kts | 301° |
| 2026-05-01 12:46 | 25.22876 | 55.40797 | 325 ft | 135 kts | 300° |
| 2026-05-01 12:47 | 25.23071 | 55.40439 | 215 ft | 134 kts | 301° |
| 2026-05-01 12:47 | 25.23438 | 55.39767 | 105 ft | 134 kts | 300° |